sensor_id;sensor_type;location;lat;lon;timestamp;pressure;altitude;pressure_sealevel;temperature;humidity
41062;BME280;26812;42.662;23.352;2022-09-17T00:01:44;94092.19;;;18.54;82.79
41062;BME280;26812;42.662;23.352;2022-09-17T00:04:09;94090.31;;;18.69;82.27
41062;BME280;26812;42.662;23.352;2022-09-17T00:06:35;94102.41;;;18.82;81.00
41062;BME280;26812;42.662;23.352;2022-09-17T00:09:02;94100.06;;;18.74;81.87
41062;BME280;26812;42.662;23.352;2022-09-17T00:11:31;94103.53;;;18.64;81.52
41062;BME280;26812;42.662;23.352;2022-09-17T00:13:59;94080.19;;;18.80;81.25
41062;BME280;26812;42.662;23.352;2022-09-17T00:18:52;94069.28;;;19.02;79.33
41062;BME280;26812;42.662;23.352;2022-09-17T00:21:18;94062.63;;;18.88;80.32
41062;BME280;26812;42.662;23.352;2022-09-17T00:23:45;94075.13;;;18.89;80.27
41062;BME280;26812;42.662;23.352;2022-09-17T00:26:11;94065.38;;;18.71;80.80
41062;BME280;26812;42.662;23.352;2022-09-17T00:28:37;94064.59;;;18.84;80.52
41062;BME280;26812;42.662;23.352;2022-09-17T00:31:07;94072.38;;;18.97;79.73
41062;BME280;26812;42.662;23.352;2022-09-17T00:33:32;94073.97;;;19.01;79.45
41062;BME280;26812;42.662;23.352;2022-09-17T00:36:00;94067.31;;;19.06;79.45
41062;BME280;26812;42.662;23.352;2022-09-17T00:38:26;94079.81;;;19.03;78.42
41062;BME280;26812;42.662;23.352;2022-09-17T00:40:51;94072.00;;;18.77;79.29
41062;BME280;26812;42.662;23.352;2022-09-17T00:46:11;94079.41;;;18.69;80.07
41062;BME280;26812;42.662;23.352;2022-09-17T00:48:40;94086.41;;;18.84;79.86
41062;BME280;26812;42.662;23.352;2022-09-17T00:51:08;94084.47;;;18.88;78.80
41062;BME280;26812;42.662;23.352;2022-09-17T00:53:35;94094.22;;;18.93;80.04
41062;BME280;26812;42.662;23.352;2022-09-17T00:56:08;94063.41;;;18.89;79.08
41062;BME280;26812;42.662;23.352;2022-09-17T00:58:35;94089.53;;;18.93;79.27
41062;BME280;26812;42.662;23.352;2022-09-17T01:01:02;94089.94;;;18.92;79.49
41062;BME280;26812;42.662;23.352;2022-09-17T01:03:28;94100.09;;;18.99;79.18
41062;BME280;26812;42.662;23.352;2022-09-17T01:22:26;94057.91;;;18.43;82.32
41062;BME280;26812;42.662;23.352;2022-09-17T01:41:51;94071.09;;;18.34;83.81
41062;BME280;26812;42.662;23.352;2022-09-17T01:44:39;94070.38;;;18.44;82.90
41062;BME280;26812;42.662;23.352;2022-09-17T01:47:16;94051.94;;;18.02;84.01
41062;BME280;26812;42.662;23.352;2022-09-17T01:49:44;94050.75;;;18.03;85.28
41062;BME280;26812;42.662;23.352;2022-09-17T01:52:12;94035.63;;;18.16;84.19
41062;BME280;26812;42.662;23.352;2022-09-17T01:54:50;94018.03;;;17.92;85.79
41062;BME280;26812;42.662;23.352;2022-09-17T01:57:39;94031.56;;;17.67;86.84
41062;BME280;26812;42.662;23.352;2022-09-17T02:00:10;94062.50;;;18.10;86.32
41062;BME280;26812;42.662;23.352;2022-09-17T02:05:25;94063.78;;;18.63;83.20
41062;BME280;26812;42.662;23.352;2022-09-17T02:08:05;94040.81;;;18.81;81.92
41062;BME280;26812;42.662;23.352;2022-09-17T02:10:36;94034.56;;;18.74;80.95
41062;BME280;26812;42.662;23.352;2022-09-17T02:13:16;94018.97;;;18.78;81.49
41062;BME280;26812;42.662;23.352;2022-09-17T02:15:50;94018.59;;;18.86;80.29
41062;BME280;26812;42.662;23.352;2022-09-17T02:18:33;93981.84;;;17.98;84.45
41062;BME280;26812;42.662;23.352;2022-09-17T02:22:00;93931.66;;;18.24;83.73
41062;BME280;26812;42.662;23.352;2022-09-17T02:24:15;93967.41;;;17.77;85.06
41062;BME280;26812;42.662;23.352;2022-09-17T02:26:50;93950.09;;;17.37;87.02
41062;BME280;26812;42.662;23.352;2022-09-17T02:29:31;93915.50;;;17.41;88.47
41062;BME280;26812;42.662;23.352;2022-09-17T02:31:58;93887.97;;;17.67;85.21
41062;BME280;26812;42.662;23.352;2022-09-17T02:34:24;93904.31;;;17.71;85.09
41062;BME280;26812;42.662;23.352;2022-09-17T02:36:52;93923.72;;;17.48;86.30
41062;BME280;26812;42.662;23.352;2022-09-17T02:39:18;93947.19;;;17.88;86.20
41062;BME280;26812;42.662;23.352;2022-09-17T02:42:05;93971.78;;;18.27;83.31
41062;BME280;26812;42.662;23.352;2022-09-17T02:58:23;93977.97;;;18.03;83.34
41062;BME280;26812;42.662;23.352;2022-09-17T03:00:51;93956.59;;;18.19;83.08
41062;BME280;26812;42.662;23.352;2022-09-17T03:03:25;93941.03;;;18.45;81.16
41062;BME280;26812;42.662;23.352;2022-09-17T03:05:54;93926.59;;;18.44;79.89
41062;BME280;26812;42.662;23.352;2022-09-17T03:08:27;93932.44;;;18.14;81.23
41062;BME280;26812;42.662;23.352;2022-09-17T03:10:53;93927.41;;;18.38;81.22
41062;BME280;26812;42.662;23.352;2022-09-17T03:13:18;93899.66;;;17.72;83.19
41062;BME280;26812;42.662;23.352;2022-09-17T03:15:44;93936.72;;;18.08;82.74
41062;BME280;26812;42.662;23.352;2022-09-17T03:18:09;93926.97;;;18.32;81.44
41062;BME280;26812;42.662;23.352;2022-09-17T03:20:34;93914.53;;;18.45;80.34
41062;BME280;26812;42.662;23.352;2022-09-17T03:23:00;93929.34;;;18.69;78.94
41062;BME280;26812;42.662;23.352;2022-09-17T03:25:25;93937.53;;;18.37;80.15
41062;BME280;26812;42.662;23.352;2022-09-17T03:27:51;93919.22;;;18.38;80.88
41062;BME280;26812;42.662;23.352;2022-09-17T03:30:17;93939.44;;;18.08;81.09
41062;BME280;26812;42.662;23.352;2022-09-17T03:32:42;93930.50;;;18.25;80.92
41062;BME280;26812;42.662;23.352;2022-09-17T03:35:08;93912.19;;;18.54;80.15
41062;BME280;26812;42.662;23.352;2022-09-17T03:37:33;93888.03;;;18.53;79.25
41062;BME280;26812;42.662;23.352;2022-09-17T03:39:59;93915.28;;;18.31;80.08
41062;BME280;26812;42.662;23.352;2022-09-17T03:42:24;93886.47;;;17.84;82.08
41062;BME280;26812;42.662;23.352;2022-09-17T03:44:49;93895.41;;;17.99;82.32
41062;BME280;26812;42.662;23.352;2022-09-17T03:47:15;93908.25;;;17.88;82.97
41062;BME280;26812;42.662;23.352;2022-09-17T03:49:41;93879.47;;;17.90;84.10
41062;BME280;26812;42.662;23.352;2022-09-17T03:52:06;93891.16;;;18.19;83.37
41062;BME280;26812;42.662;23.352;2022-09-17T03:54:32;93884.53;;;18.10;81.82
41062;BME280;26812;42.662;23.352;2022-09-17T03:56:57;93902.84;;;18.30;81.04
41062;BME280;26812;42.662;23.352;2022-09-17T03:59:22;93891.94;;;18.41;81.31
41062;BME280;26812;42.662;23.352;2022-09-17T04:01:48;93895.44;;;18.63;80.41
41062;BME280;26812;42.662;23.352;2022-09-17T04:04:13;93912.19;;;18.51;79.32
41062;BME280;26812;42.662;23.352;2022-09-17T04:06:39;93895.03;;;18.50;79.94
41062;BME280;26812;42.662;23.352;2022-09-17T04:09:04;93927.78;;;18.72;79.47
41062;BME280;26812;42.662;23.352;2022-09-17T04:11:30;93913.34;;;18.75;79.36
41062;BME280;26812;42.662;23.352;2022-09-17T04:13:55;93916.44;;;18.87;78.74
41062;BME280;26812;42.662;23.352;2022-09-17T04:16:21;93910.22;;;18.87;77.96
41062;BME280;26812;42.662;23.352;2022-09-17T04:18:46;93942.19;;;18.86;78.09
41062;BME280;26812;42.662;23.352;2022-09-17T04:21:11;93968.28;;;18.59;79.35
41062;BME280;26812;42.662;23.352;2022-09-17T04:23:37;93977.28;;;18.70;79.83
41062;BME280;26812;42.662;23.352;2022-09-17T04:26:02;93994.81;;;18.83;79.52
41062;BME280;26812;42.662;23.352;2022-09-17T04:28:29;93994.41;;;18.92;79.25
41062;BME280;26812;42.662;23.352;2022-09-17T04:30:54;94016.22;;;18.96;78.79
41062;BME280;26812;42.662;23.352;2022-09-17T04:33:20;94009.22;;;18.87;79.47
41062;BME280;26812;42.662;23.352;2022-09-17T04:35:45;94015.06;;;18.93;79.23
41062;BME280;26812;42.662;23.352;2022-09-17T04:38:11;94026.78;;;18.76;79.73
41062;BME280;26812;42.662;23.352;2022-09-17T04:40:43;94046.63;;;18.62;80.97
41062;BME280;26812;42.662;23.352;2022-09-17T04:43:08;94033.03;;;18.69;80.87
41062;BME280;26812;42.662;23.352;2022-09-17T04:45:35;94054.84;;;18.90;80.69
41062;BME280;26812;42.662;23.352;2022-09-17T04:48:01;94059.91;;;19.03;79.93
41062;BME280;26812;42.662;23.352;2022-09-17T04:50:26;94073.94;;;18.90;79.64
41062;BME280;26812;42.662;23.352;2022-09-17T04:52:59;94067.72;;;18.69;81.09
41062;BME280;26812;42.662;23.352;2022-09-17T04:55:24;94078.22;;;18.77;81.38
41062;BME280;26812;42.662;23.352;2022-09-17T04:57:52;94082.13;;;18.90;81.04
41062;BME280;26812;42.662;23.352;2022-09-17T05:00:19;94083.72;;;18.99;80.52
41062;BME280;26812;42.662;23.352;2022-09-17T05:02:46;94070.44;;;18.79;80.44
41062;BME280;26812;42.662;23.352;2022-09-17T05:05:12;94080.19;;;18.95;80.93
41062;BME280;26812;42.662;23.352;2022-09-17T05:07:39;94086.81;;;19.04;80.94
41062;BME280;26812;42.662;23.352;2022-09-17T05:10:05;94087.59;;;19.15;80.29
41062;BME280;26812;42.662;23.352;2022-09-17T05:12:31;94071.22;;;19.08;80.51
41062;BME280;26812;42.662;23.352;2022-09-17T05:14:56;94082.53;;;19.10;80.49
41062;BME280;26812;42.662;23.352;2022-09-17T05:17:21;94073.19;;;19.08;80.30
41062;BME280;26812;42.662;23.352;2022-09-17T05:19:47;94077.84;;;19.11;80.34
41062;BME280;26812;42.662;23.352;2022-09-17T05:22:12;94064.56;;;19.16;79.93
41062;BME280;26812;42.662;23.352;2022-09-17T05:24:38;94037.28;;;19.16;79.78
41062;BME280;26812;42.662;23.352;2022-09-17T05:27:07;94034.16;;;19.21;80.08
41062;BME280;26812;42.662;23.352;2022-09-17T05:29:33;94020.50;;;19.14;80.18
41062;BME280;26812;42.662;23.352;2022-09-17T05:31:58;93997.53;;;18.90;80.36
41062;BME280;26812;42.662;23.352;2022-09-17T05:34:24;94011.56;;;19.10;80.93
41062;BME280;26812;42.662;23.352;2022-09-17T05:36:49;94038.47;;;19.12;80.40
41062;BME280;26812;42.662;23.352;2022-09-17T05:39:14;94043.09;;;19.26;81.50
41062;BME280;26812;42.662;23.352;2022-09-17T05:41:40;94061.03;;;18.55;83.14
41062;BME280;26812;42.662;23.352;2022-09-17T05:44:05;94036.09;;;18.57;83.59
41062;BME280;26812;42.662;23.352;2022-09-17T05:46:31;94059.06;;;18.49;84.02
41062;BME280;26812;42.662;23.352;2022-09-17T05:48:56;94061.09;;;18.80;82.99
41062;BME280;26812;42.662;23.352;2022-09-17T05:51:23;94059.16;;;18.99;82.40
41062;BME280;26812;42.662;23.352;2022-09-17T05:53:48;94075.09;;;19.18;81.56
41062;BME280;26812;42.662;23.352;2022-09-17T05:56:14;94072.38;;;19.21;82.09
41062;BME280;26812;42.662;23.352;2022-09-17T05:58:40;94058.72;;;19.25;81.74
41062;BME280;26812;42.662;23.352;2022-09-17T06:01:05;94055.97;;;19.36;81.66
41062;BME280;26812;42.662;23.352;2022-09-17T06:03:31;94054.47;;;18.78;81.59
41062;BME280;26812;42.662;23.352;2022-09-17T06:05:58;94054.44;;;19.10;80.88
41062;BME280;26812;42.662;23.352;2022-09-17T06:08:24;94058.75;;;19.11;81.28
41062;BME280;26812;42.662;23.352;2022-09-17T06:10:50;94047.81;;;19.18;81.25
41062;BME280;26812;42.662;23.352;2022-09-17T06:13:16;94065.75;;;19.37;80.65
41062;BME280;26812;42.662;23.352;2022-09-17T06:15:48;94061.84;;;19.38;80.33
41062;BME280;26812;42.662;23.352;2022-09-17T06:18:14;94036.50;;;19.16;80.29
41062;BME280;26812;42.662;23.352;2022-09-17T06:20:39;94082.06;;;18.58;84.89
41062;BME280;26812;42.662;23.352;2022-09-17T06:23:05;94097.72;;;18.90;84.04
41062;BME280;26812;42.662;23.352;2022-09-17T06:25:30;94096.19;;;19.14;82.41
41062;BME280;26812;42.662;23.352;2022-09-17T06:27:56;94127.75;;;19.43;81.55
41062;BME280;26812;42.662;23.352;2022-09-17T06:30:21;94116.03;;;19.46;80.61
41062;BME280;26812;42.662;23.352;2022-09-17T06:32:47;94139.09;;;19.56;80.17
41062;BME280;26812;42.662;23.352;2022-09-17T06:35:12;94137.91;;;19.18;80.18
41062;BME280;26812;42.662;23.352;2022-09-17T06:37:38;94149.25;;;19.31;79.37
41062;BME280;26812;42.662;23.352;2022-09-17T06:40:05;94152.72;;;19.24;80.73
41062;BME280;26812;42.662;23.352;2022-09-17T06:42:31;94159.00;;;19.35;81.03
41062;BME280;26812;42.662;23.352;2022-09-17T06:44:56;94137.13;;;19.39;80.36
41062;BME280;26812;42.662;23.352;2022-09-17T06:47:25;94125.41;;;19.42;80.92
41062;BME280;26812;42.662;23.352;2022-09-17T06:49:50;94113.31;;;19.50;80.58
41062;BME280;26812;42.662;23.352;2022-09-17T06:52:16;94104.34;;;19.57;80.15
41062;BME280;26812;42.662;23.352;2022-09-17T06:54:42;94108.25;;;19.56;79.53
41062;BME280;26812;42.662;23.352;2022-09-17T06:57:07;94114.50;;;19.63;79.93
41062;BME280;26812;42.662;23.352;2022-09-17T06:59:33;94107.44;;;19.51;79.65
41062;BME280;26812;42.662;23.352;2022-09-17T07:01:58;94088.34;;;19.51;79.43
41062;BME280;26812;42.662;23.352;2022-09-17T07:04:24;94104.34;;;19.24;81.27
41062;BME280;26812;42.662;23.352;2022-09-17T07:06:49;94082.84;;;18.55;84.79
41062;BME280;26812;42.662;23.352;2022-09-17T07:09:14;94068.03;;;18.60;84.57
41062;BME280;26812;42.662;23.352;2022-09-17T07:11:40;94027.16;;;18.64;84.24
41062;BME280;26812;42.662;23.352;2022-09-17T07:14:05;94052.91;;;18.80;84.07
41062;BME280;26812;42.662;23.352;2022-09-17T07:16:31;94033.75;;;18.52;86.24
41062;BME280;26812;42.662;23.352;2022-09-17T07:19:00;94033.00;;;18.66;86.08
41062;BME280;26812;42.662;23.352;2022-09-17T07:21:26;94013.53;;;18.99;84.59
41062;BME280;26812;42.662;23.352;2022-09-17T07:23:51;94014.19;;;19.46;83.13
41062;BME280;26812;42.662;23.352;2022-09-17T07:26:17;94004.03;;;19.68;80.64
41062;BME280;26812;42.662;23.352;2022-09-17T07:28:42;94009.88;;;19.66;81.68
41062;BME280;26812;42.662;23.352;2022-09-17T07:31:08;94024.28;;;19.74;80.12
41062;BME280;26812;42.662;23.352;2022-09-17T07:33:35;94018.78;;;19.92;79.12
41062;BME280;26812;42.662;23.352;2022-09-17T07:36:04;94028.91;;;19.88;80.07
41062;BME280;26812;42.662;23.352;2022-09-17T07:38:30;94022.66;;;19.94;78.11
41062;BME280;26812;42.662;23.352;2022-09-17T07:43:24;94030.03;;;20.04;77.50
41062;BME280;26812;42.662;23.352;2022-09-17T07:45:50;94026.53;;;20.00;77.46
41062;BME280;26812;42.662;23.352;2022-09-17T07:48:17;94016.25;;;20.19;76.78
41062;BME280;26812;42.662;23.352;2022-09-17T07:50:43;94015.78;;;20.41;75.66
41062;BME280;26812;42.662;23.352;2022-09-17T07:53:08;94016.69;;;20.13;75.96
41062;BME280;26812;42.662;23.352;2022-09-17T07:55:34;94022.41;;;20.37;76.76
41062;BME280;26812;42.662;23.352;2022-09-17T07:58:06;94013.25;;;20.02;77.60
41062;BME280;26812;42.662;23.352;2022-09-17T08:00:32;93995.88;;;20.34;77.21
41062;BME280;26812;42.662;23.352;2022-09-17T08:02:58;94008.22;;;20.63;76.40
41062;BME280;26812;42.662;23.352;2022-09-17T08:05:24;94007.63;;;20.90;75.55
41062;BME280;26812;42.662;23.352;2022-09-17T08:07:54;94013.97;;;20.76;74.27
41062;BME280;26812;42.662;23.352;2022-09-17T08:10:21;94010.50;;;20.68;74.59
41062;BME280;26812;42.662;23.352;2022-09-17T08:12:54;94004.03;;;20.96;74.41
41062;BME280;26812;42.662;23.352;2022-09-17T08:15:20;94002.94;;;20.87;73.50
41062;BME280;26812;42.662;23.352;2022-09-17T08:17:45;93987.06;;;20.67;74.71
41062;BME280;26812;42.662;23.352;2022-09-17T08:20:12;93984.13;;;20.37;75.38
41062;BME280;26812;42.662;23.352;2022-09-17T08:22:38;93982.50;;;20.50;74.82
41062;BME280;26812;42.662;23.352;2022-09-17T08:25:05;93989.41;;;20.69;75.26
41062;BME280;26812;42.662;23.352;2022-09-17T08:27:31;93972.13;;;20.75;74.02
41062;BME280;26812;42.662;23.352;2022-09-17T08:29:56;93979.31;;;20.59;73.42
41062;BME280;26812;42.662;23.352;2022-09-17T08:32:22;93989.28;;;20.80;72.80
41062;BME280;26812;42.662;23.352;2022-09-17T08:34:48;93984.72;;;21.14;72.46
41062;BME280;26812;42.662;23.352;2022-09-17T08:37:13;93982.09;;;21.41;71.50
41062;BME280;26812;42.662;23.352;2022-09-17T08:39:39;93970.16;;;21.58;69.39
41062;BME280;26812;42.662;23.352;2022-09-17T08:43:11;93992.41;;;21.30;70.70
41062;BME280;26812;42.662;23.352;2022-09-17T08:45:09;93983.81;;;20.83;71.41
41062;BME280;26812;42.662;23.352;2022-09-17T08:47:39;93989.72;;;21.23;70.76
41062;BME280;26812;42.662;23.352;2022-09-17T08:50:16;93969.38;;;21.20;70.38
41062;BME280;26812;42.662;23.352;2022-09-17T08:55:36;93980.44;;;21.51;69.25
41062;BME280;26812;42.662;23.352;2022-09-17T09:01:23;94000.50;;;21.41;68.62
41062;BME280;26812;42.662;23.352;2022-09-17T09:03:57;93984.63;;;21.25;70.39
41062;BME280;26812;42.662;23.352;2022-09-17T09:06:31;93972.50;;;20.77;70.55
41062;BME280;26812;42.662;23.352;2022-09-17T09:09:10;93991.44;;;20.58;71.21
41062;BME280;26812;42.662;23.352;2022-09-17T09:11:38;93980.53;;;20.54;72.38
41062;BME280;26812;42.662;23.352;2022-09-17T09:14:25;93997.78;;;20.96;72.30
41062;BME280;26812;42.662;23.352;2022-09-17T09:16:53;94006.66;;;21.07;73.05
41062;BME280;26812;42.662;23.352;2022-09-17T09:19:29;94005.44;;;21.15;72.83
41062;BME280;26812;42.662;23.352;2022-09-17T09:24:23;94018.72;;;21.17;73.43
41062;BME280;26812;42.662;23.352;2022-09-17T09:27:16;94021.03;;;21.22;73.06
41062;BME280;26812;42.662;23.352;2022-09-17T09:29:51;94045.63;;;20.77;75.01
41062;BME280;26812;42.662;23.352;2022-09-17T09:32:47;94021.84;;;20.70;76.30
41062;BME280;26812;42.662;23.352;2022-09-17T09:35:22;94020.59;;;20.78;76.55
41062;BME280;26812;42.662;23.352;2022-09-17T09:40:41;94059.38;;;20.70;79.65
41062;BME280;26812;42.662;23.352;2022-09-17T09:43:32;94068.34;;;20.70;79.05
41062;BME280;26812;42.662;23.352;2022-09-17T09:49:16;94065.31;;;20.61;80.51
41062;BME280;26812;42.662;23.352;2022-09-17T09:52:18;94073.84;;;20.70;81.27
41062;BME280;26812;42.662;23.352;2022-09-17T09:57:49;94094.25;;;20.59;83.02
41062;BME280;26812;42.662;23.352;2022-09-17T10:05:28;94054.41;;;20.51;83.90
41062;BME280;26812;42.662;23.352;2022-09-17T10:07:54;94038.97;;;20.12;83.78
41062;BME280;26812;42.662;23.352;2022-09-17T10:10:20;94010.25;;;19.72;86.20
41062;BME280;26812;42.662;23.352;2022-09-17T10:12:45;93987.66;;;19.57;88.80
41062;BME280;26812;42.662;23.352;2022-09-17T10:15:26;93992.19;;;19.89;87.70
41062;BME280;26812;42.662;23.352;2022-09-17T10:18:10;93979.88;;;19.45;87.06
41062;BME280;26812;42.662;23.352;2022-09-17T10:23:15;93962.28;;;19.49;88.07
41062;BME280;26812;42.662;23.352;2022-09-17T10:25:41;93946.06;;;18.89;90.26
41062;BME280;26812;42.662;23.352;2022-09-17T10:30:58;93934.41;;;18.78;91.07
41062;BME280;26812;42.662;23.352;2022-09-17T10:33:31;93929.69;;;18.92;89.80
41062;BME280;26812;42.662;23.352;2022-09-17T10:38:43;93956.56;;;18.98;88.80
41062;BME280;26812;42.662;23.352;2022-09-17T10:43:40;93942.19;;;18.86;89.90
41062;BME280;26812;42.662;23.352;2022-09-17T10:46:13;93935.53;;;19.05;90.25
41062;BME280;26812;42.662;23.352;2022-09-17T10:48:43;93919.44;;;19.25;88.67
41062;BME280;26812;42.662;23.352;2022-09-17T10:51:10;93915.47;;;19.47;88.32
41062;BME280;26812;42.662;23.352;2022-09-17T10:54:07;93883.63;;;19.12;87.16
41062;BME280;26812;42.662;23.352;2022-09-17T10:56:45;93893.19;;;19.52;86.72
41062;BME280;26812;42.662;23.352;2022-09-17T11:04:34;93881.78;;;19.75;87.73
41062;BME280;26812;42.662;23.352;2022-09-17T11:10:24;93916.09;;;19.83;88.05
41062;BME280;26812;42.662;23.352;2022-09-17T11:18:30;93916.44;;;20.48;85.36
41062;BME280;26812;42.662;23.352;2022-09-17T11:26:29;93934.59;;;20.76;85.15
41062;BME280;26812;42.662;23.352;2022-09-17T11:34:23;93955.00;;;21.13;81.18
41062;BME280;26812;42.662;23.352;2022-09-17T11:37:12;93947.22;;;21.04;79.98
41062;BME280;26812;42.662;23.352;2022-09-17T11:40:14;93949.75;;;20.88;81.16
41062;BME280;26812;42.662;23.352;2022-09-17T11:45:52;93952.97;;;20.75;83.30
41062;BME280;26812;42.662;23.352;2022-09-17T11:48:23;93948.75;;;20.67;82.62
41062;BME280;26812;42.662;23.352;2022-09-17T11:50:59;93953.66;;;20.35;85.03
41062;BME280;26812;42.662;23.352;2022-09-17T11:53:33;93918.16;;;20.28;85.27
41062;BME280;26812;42.662;23.352;2022-09-17T12:04:43;93901.19;;;20.54;83.00
41062;BME280;26812;42.662;23.352;2022-09-17T12:10:24;93912.59;;;20.42;83.45
41062;BME280;26812;42.662;23.352;2022-09-17T12:13:04;93913.28;;;19.98;84.82
41062;BME280;26812;42.662;23.352;2022-09-17T12:15:33;93912.13;;;19.99;84.72
41062;BME280;26812;42.662;23.352;2022-09-17T12:20:34;93897.59;;;20.09;83.34
41062;BME280;26812;42.662;23.352;2022-09-17T12:23:03;93914.59;;;20.34;83.85
41062;BME280;26812;42.662;23.352;2022-09-17T12:25:49;93881.94;;;20.13;84.86
41062;BME280;26812;42.662;23.352;2022-09-17T12:28:47;93898.38;;;20.09;83.74
41062;BME280;26812;42.662;23.352;2022-09-17T12:31:36;93886.16;;;19.66;86.18
41062;BME280;26812;42.662;23.352;2022-09-17T12:34:25;93895.31;;;20.00;83.90
41062;BME280;26812;42.662;23.352;2022-09-17T12:37:18;93884.47;;;19.82;84.59
41062;BME280;26812;42.662;23.352;2022-09-17T12:48:00;93865.78;;;19.77;85.41
41062;BME280;26812;42.662;23.352;2022-09-17T12:53:22;93868.97;;;19.69;82.48
41062;BME280;26812;42.662;23.352;2022-09-17T12:56:04;93890.44;;;19.67;84.91
41062;BME280;26812;42.662;23.352;2022-09-17T12:58:36;93887.25;;;19.75;85.92
41062;BME280;26812;42.662;23.352;2022-09-17T13:01:57;93867.16;;;20.03;85.27
41062;BME280;26812;42.662;23.352;2022-09-17T13:04:14;93843.84;;;19.84;85.54
41062;BME280;26812;42.662;23.352;2022-09-17T13:12:29;93859.44;;;19.91;86.59
41062;BME280;26812;42.662;23.352;2022-09-17T13:15:26;93864.91;;;19.91;85.11
41062;BME280;26812;42.662;23.352;2022-09-17T13:18:10;93860.88;;;20.06;85.90
41062;BME280;26812;42.662;23.352;2022-09-17T13:21:01;93871.78;;;20.13;84.66
41062;BME280;26812;42.662;23.352;2022-09-17T13:23:53;93861.03;;;19.85;84.17
41062;BME280;26812;42.662;23.352;2022-09-17T13:26:21;93853.03;;;20.12;84.14
41062;BME280;26812;42.662;23.352;2022-09-17T13:28:57;93836.53;;;19.74;83.00
41062;BME280;26812;42.662;23.352;2022-09-17T13:31:46;93823.63;;;19.75;80.71
41062;BME280;26812;42.662;23.352;2022-09-17T13:39:44;93805.41;;;20.09;82.33
41062;BME280;26812;42.662;23.352;2022-09-17T13:42:20;93795.44;;;19.85;79.69
41062;BME280;26812;42.662;23.352;2022-09-17T13:47:28;93776.06;;;19.69;77.75
41062;BME280;26812;42.662;23.352;2022-09-17T13:50:26;93767.09;;;19.68;78.15
41062;BME280;26812;42.662;23.352;2022-09-17T13:52:54;93766.53;;;19.88;80.87
41062;BME280;26812;42.662;23.352;2022-09-17T13:55:36;93757.91;;;19.93;82.26
41062;BME280;26812;42.662;23.352;2022-09-17T13:58:06;93733.63;;;19.50;80.15
41062;BME280;26812;42.662;23.352;2022-09-17T14:08:47;93740.38;;;19.90;81.03
41062;BME280;26812;42.662;23.352;2022-09-17T14:13:49;93744.09;;;20.07;80.58
41062;BME280;26812;42.662;23.352;2022-09-17T14:32:35;93755.81;;;19.63;80.39
41062;BME280;26812;42.662;23.352;2022-09-17T14:37:41;93738.53;;;19.76;80.64
41062;BME280;26812;42.662;23.352;2022-09-17T14:40:09;93737.72;;;19.79;82.33
41062;BME280;26812;42.662;23.352;2022-09-17T14:42:36;93719.47;;;19.69;83.92
41062;BME280;26812;42.662;23.352;2022-09-17T14:45:07;93643.44;;;19.05;83.55
41062;BME280;26812;42.662;23.352;2022-09-17T14:47:38;93685.56;;;19.04;85.35
41062;BME280;26812;42.662;23.352;2022-09-17T14:50:36;93724.06;;;19.20;85.02
41062;BME280;26812;42.662;23.352;2022-09-17T14:53:06;93716.66;;;19.21;85.63
41062;BME280;26812;42.662;23.352;2022-09-17T14:55:32;93712.41;;;19.13;85.40
41062;BME280;26812;42.662;23.352;2022-09-17T14:57:59;93707.72;;;19.13;83.77
41062;BME280;26812;42.662;23.352;2022-09-17T15:00:34;93693.66;;;19.18;86.55
41062;BME280;26812;42.662;23.352;2022-09-17T15:03:01;93661.03;;;19.01;85.61
41062;BME280;26812;42.662;23.352;2022-09-17T15:05:32;93669.38;;;19.35;86.11
41062;BME280;26812;42.662;23.352;2022-09-17T15:13:22;93669.81;;;19.26;87.06
41062;BME280;26812;42.662;23.352;2022-09-17T15:16:01;93659.44;;;19.07;83.47
41062;BME280;26812;42.662;23.352;2022-09-17T15:18:34;93671.31;;;19.34;84.85
41062;BME280;26812;42.662;23.352;2022-09-17T15:21:03;93687.84;;;19.13;86.38
41062;BME280;26812;42.662;23.352;2022-09-17T15:23:31;93677.78;;;19.03;86.47
41062;BME280;26812;42.662;23.352;2022-09-17T15:25:59;93654.94;;;18.75;84.96
41062;BME280;26812;42.662;23.352;2022-09-17T15:28:38;93672.72;;;18.98;86.35
41062;BME280;26812;42.662;23.352;2022-09-17T15:31:16;93657.59;;;18.86;88.70
41062;BME280;26812;42.662;23.352;2022-09-17T15:33:49;93655.16;;;19.06;87.80
41062;BME280;26812;42.662;23.352;2022-09-17T15:38:44;93649.53;;;18.72;90.25
41062;BME280;26812;42.662;23.352;2022-09-17T15:41:22;93669.41;;;18.61;89.75
41062;BME280;26812;42.662;23.352;2022-09-17T15:43:49;93656.94;;;18.60;89.94
41062;BME280;26812;42.662;23.352;2022-09-17T15:46:29;93669.28;;;18.86;90.54
41062;BME280;26812;42.662;23.352;2022-09-17T15:48:58;93661.50;;;18.85;90.75
41062;BME280;26812;42.662;23.352;2022-09-17T15:53:57;93667.59;;;19.10;90.17
41062;BME280;26812;42.662;23.352;2022-09-17T15:56:25;93667.25;;;19.05;91.05
41062;BME280;26812;42.662;23.352;2022-09-17T15:59:03;93645.78;;;19.07;91.00
41062;BME280;26812;42.662;23.352;2022-09-17T16:08:55;93633.13;;;19.27;85.16
41062;BME280;26812;42.662;23.352;2022-09-17T16:11:26;93604.44;;;19.08;84.44
41062;BME280;26812;42.662;23.352;2022-09-17T16:13:53;93597.41;;;19.11;82.92
41062;BME280;26812;42.662;23.352;2022-09-17T16:16:20;93619.75;;;19.43;82.67
41062;BME280;26812;42.662;23.352;2022-09-17T16:18:47;93637.16;;;19.64;83.30
41062;BME280;26812;42.662;23.352;2022-09-17T16:21:14;93638.81;;;19.47;85.30
41062;BME280;26812;42.662;23.352;2022-09-17T16:23:41;93624.03;;;19.44;85.33
41062;BME280;26812;42.662;23.352;2022-09-17T16:26:11;93630.81;;;19.26;83.68
41062;BME280;26812;42.662;23.352;2022-09-17T16:28:38;93629.44;;;19.48;84.31
41062;BME280;26812;42.662;23.352;2022-09-17T16:31:04;93615.97;;;19.30;86.03
41062;BME280;26812;42.662;23.352;2022-09-17T16:33:30;93612.44;;;19.33;85.68